Time,TemperatureF,DewpointF,PressureIn,WindDirection,WindDirectionDegrees,WindSpeedMPH,WindSpeedGustMPH,Humidity,HourlyPrecipIn,Conditions,Clouds,dailyrainin,SoftwareType,DateUTC
2013-01-06 00:00:00,34.1,30.6,30.39,West,263,0.0,0.0,87,0.00,,,0.00,Wunderground v.1.15,2013-01-06 05:00:00,
2013-01-06 00:05:00,34.0,30.3,30.39,West,259,0.0,0.0,86,0.00,,,0.01,Wunderground v.1.15,2013-01-06 05:05:00,
2013-01-06 00:15:00,34.1,30.4,30.38,WSW,257,0.0,0.0,86,0.00,,,0.01,Wunderground v.1.15,2013-01-06 05:15:00,
2013-01-06 00:20:00,34.0,30.3,30.38,West,259,0.0,0.0,86,0.00,,,0.01,Wunderground v.1.15,2013-01-06 05:20:00,
2013-01-06 00:25:00,34.1,30.6,30.38,WSW,255,0.0,0.0,87,0.00,,,0.01,Wunderground v.1.15,2013-01-06 05:25:00,
2013-01-06 00:31:00,34.1,30.4,30.37,SW,232,0.0,0.0,86,0.00,,,0.01,Wunderground v.1.15,2013-01-06 05:31:00,
2013-01-06 00:36:00,34.2,30.4,30.37,NNW,333,0.0,2.0,86,0.00,,,0.01,Wunderground v.1.15,2013-01-06 05:36:00,
2013-01-06 00:41:00,34.1,30.4,30.37,East,89,0.0,0.0,86,0.00,,,0.01,Wunderground v.1.15,2013-01-06 05:41:00,
2013-01-06 00:50:00,34.4,29.5,30.38,NE,51,0.0,1.0,82,0.00,,,0.01,Wunderground v.1.15,2013-01-06 05:50:00,
2013-01-06 00:55:00,35.0,29.1,30.38,WNW,300,1.0,2.0,79,0.00,,,0.01,Wunderground v.1.15,2013-01-06 05:55:00,
2013-01-06 01:00:00,35.6,28.8,30.39,South,188,1.0,3.0,76,0.00,,,0.01,Wunderground v.1.15,2013-01-06 06:00:00,
2013-01-06 01:05:00,35.8,29.0,30.38,SW,217,2.0,3.0,76,0.00,,,0.01,Wunderground v.1.15,2013-01-06 06:05:00,
2013-01-06 01:10:00,36.0,28.5,30.38,NW,325,2.0,2.0,74,0.00,,,0.01,Wunderground v.1.15,2013-01-06 06:10:00,
2013-01-06 01:15:00,36.2,28.0,30.38,SSE,162,2.0,2.0,72,0.00,,,0.01,Wunderground v.1.15,2013-01-06 06:15:00,
2013-01-06 01:25:00,36.7,27.8,30.38,SSW,208,2.0,2.0,70,0.00,,,0.01,Wunderground v.1.15,2013-01-06 06:25:00,
2013-01-06 01:31:00,36.9,28.7,30.38,NE,50,2.0,4.0,72,0.00,,,0.01,Wunderground v.1.15,2013-01-06 06:31:00,
2013-01-06 01:36:00,37.0,28.1,30.38,NE,37,2.0,7.0,70,0.00,,,0.01,Wunderground v.1.15,2013-01-06 06:36:00,
2013-01-06 01:41:00,37.1,28.2,30.38,ESE,117,3.0,3.0,70,0.00,,,0.01,Wunderground v.1.15,2013-01-06 06:41:00,
2013-01-06 01:50:00,37.1,29.2,30.38,East,84,1.0,1.0,73,0.00,,,0.01,Wunderground v.1.15,2013-01-06 06:50:00,
2013-01-06 02:00:00,37.1,29.9,30.38,SW,217,0.0,0.0,75,0.00,,,0.01,Wunderground v.1.15,2013-01-06 07:00:00,
2013-01-06 02:05:00,37.1,28.9,30.38,SW,217,0.0,0.0,72,0.00,,,0.01,Wunderground v.1.15,2013-01-06 07:05:00,
2013-01-06 02:10:00,37.1,30.2,30.38,SSW,197,0.0,0.0,76,0.00,,,0.01,Wunderground v.1.15,2013-01-06 07:10:00,
2013-01-06 02:15:00,37.1,30.2,30.38,SSW,197,0.0,0.0,76,0.00,,,0.01,Wunderground v.1.15,2013-01-06 07:15:00,
2013-01-06 02:20:00,37.0,30.5,30.38,SSW,198,0.0,0.0,77,0.00,,,0.01,Wunderground v.1.15,2013-01-06 07:20:00,
2013-01-06 02:30:00,36.9,30.0,30.38,SSW,212,0.0,0.0,76,0.00,,,0.01,Wunderground v.1.15,2013-01-06 07:30:00,
2013-01-06 02:36:00,36.9,30.4,30.38,SSW,212,0.0,0.0,77,0.00,,,0.01,Wunderground v.1.15,2013-01-06 07:36:00,
2013-01-06 02:41:00,36.8,29.9,30.38,West,267,0.0,0.0,76,0.00,,,0.01,Wunderground v.1.15,2013-01-06 07:41:00,
2013-01-06 02:46:00,36.8,30.6,30.37,SE,146,0.0,0.0,78,0.00,,,0.01,Wunderground v.1.15,2013-01-06 07:46:00,
2013-01-06 02:55:00,36.7,29.8,30.37,SW,236,0.0,0.0,76,0.00,,,0.01,Wunderground v.1.15,2013-01-06 07:55:00,
2013-01-06 03:05:00,37.0,29.8,30.36,SW,236,0.0,0.0,75,0.00,,,0.01,Wunderground v.1.15,2013-01-06 08:05:00,
2013-01-06 03:10:00,36.9,30.4,30.36,SW,236,0.0,0.0,77,0.00,,,0.01,Wunderground v.1.15,2013-01-06 08:10:00,
2013-01-06 03:15:00,37.0,30.1,30.36,SW,236,0.0,0.0,76,0.00,,,0.01,Wunderground v.1.15,2013-01-06 08:15:00,
2013-01-06 03:20:00,36.9,30.0,30.35,SW,236,0.0,0.0,76,0.00,,,0.01,Wunderground v.1.15,2013-01-06 08:20:00,
2013-01-06 03:26:00,36.9,30.0,30.35,SW,236,0.0,0.0,76,0.00,,,0.01,Wunderground v.1.15,2013-01-06 08:26:00,
2013-01-06 03:31:00,36.9,30.7,30.35,SW,236,0.0,0.0,78,0.00,,,0.01,Wunderground v.1.15,2013-01-06 08:31:00,
2013-01-06 03:41:00,36.7,30.5,30.34,SW,236,0.0,0.0,78,0.00,,,0.01,Wunderground v.1.15,2013-01-06 08:41:00,
2013-01-06 03:50:00,36.6,30.4,30.34,SSW,193,0.0,0.0,78,0.00,,,0.01,Wunderground v.1.15,2013-01-06 08:50:00,
2013-01-06 03:55:00,36.6,30.4,30.34,SSW,193,0.0,0.0,78,0.00,,,0.01,Wunderground v.1.15,2013-01-06 08:55:00,
2013-01-06 04:00:00,36.6,30.4,30.33,SSW,193,0.0,0.0,78,0.00,,,0.01,Wunderground v.1.15,2013-01-06 09:00:00,
2013-01-06 04:05:00,36.6,30.7,30.33,SSW,193,0.0,0.0,79,0.00,,,0.01,Wunderground v.1.15,2013-01-06 09:05:00,
2013-01-06 04:15:00,36.4,30.5,30.33,WSW,256,0.0,0.0,79,0.00,,,0.01,Wunderground v.1.15,2013-01-06 09:15:00,
2013-01-06 04:21:00,36.4,30.5,30.32,WSW,255,0.0,0.0,79,0.00,,,0.01,Wunderground v.1.15,2013-01-06 09:21:00,
2013-01-06 04:26:00,36.2,30.0,30.32,West,271,0.0,0.0,78,0.00,,,0.01,Wunderground v.1.15,2013-01-06 09:26:00,
2013-01-06 04:31:00,36.0,30.1,30.32,West,270,0.0,0.0,79,0.00,,,0.01,Wunderground v.1.15,2013-01-06 09:31:00,
2013-01-06 04:40:00,35.7,29.8,30.32,WSW,238,0.0,0.0,79,0.00,,,0.01,Wunderground v.1.15,2013-01-06 09:40:00,
2013-01-06 04:45:00,35.6,30.0,30.31,NNE,12,0.0,2.0,80,0.00,,,0.01,Wunderground v.1.15,2013-01-06 09:45:00,
2013-01-06 04:50:00,35.9,29.7,30.31,NNE,32,1.0,4.0,78,0.00,,,0.01,Wunderground v.1.15,2013-01-06 09:50:00,
2013-01-06 04:55:00,36.4,30.2,30.31,NE,34,1.0,4.0,78,0.00,,,0.01,Wunderground v.1.15,2013-01-06 09:55:00,
2013-01-06 05:00:00,37.0,30.8,30.31,East,90,2.0,2.0,78,0.00,,,0.01,Wunderground v.1.15,2013-01-06 10:00:00,
2013-01-06 05:05:00,37.4,30.8,30.31,NNW,337,3.0,3.0,77,0.00,,,0.01,Wunderground v.1.15,2013-01-06 10:05:00,
2013-01-06 05:10:00,37.4,31.2,30.31,East,90,2.0,2.0,78,0.00,,,0.01,Wunderground v.1.15,2013-01-06 10:10:00,
2013-01-06 05:15:00,37.4,31.5,30.31,NE,42,1.0,2.0,79,0.00,,,0.01,Wunderground v.1.15,2013-01-06 10:15:00,
2013-01-06 05:20:00,37.5,32.2,30.31,NNW,344,2.0,2.0,81,0.00,,,0.01,Wunderground v.1.15,2013-01-06 10:20:00,
2013-01-06 05:26:00,37.7,32.1,30.31,NE,55,3.0,3.0,80,0.00,,,0.01,Wunderground v.1.15,2013-01-06 10:26:00,
2013-01-06 05:31:00,37.7,32.1,30.31,NNE,26,3.0,5.0,80,0.00,,,0.01,Wunderground v.1.15,2013-01-06 10:31:00,
2013-01-06 05:36:00,37.7,32.1,30.31,North,11,3.0,5.0,80,0.00,,,0.01,Wunderground v.1.15,2013-01-06 10:36:00,
2013-01-06 05:45:00,37.3,32.3,30.30,North,6,3.0,6.0,82,0.00,,,0.01,Wunderground v.1.15,2013-01-06 10:45:00,
2013-01-06 05:50:00,37.0,32.3,30.31,ENE,68,5.0,8.0,83,0.00,,,0.01,Wunderground v.1.15,2013-01-06 10:50:00,
2013-01-06 05:55:00,36.6,32.2,30.30,NNW,330,6.0,8.0,84,0.00,,,0.01,Wunderground v.1.15,2013-01-06 10:55:00,
2013-01-06 06:00:00,36.3,32.2,30.31,ENE,63,5.0,5.0,85,0.00,,,0.01,Wunderground v.1.15,2013-01-06 11:00:00,
2013-01-06 06:06:00,36.1,32.0,30.31,North,3,5.0,7.0,85,0.00,,,0.01,Wunderground v.1.15,2013-01-06 11:06:00,
2013-01-06 06:11:00,36.0,32.2,30.31,NNW,332,5.0,5.0,86,0.00,,,0.01,Wunderground v.1.15,2013-01-06 11:11:00,
2013-01-06 06:16:00,35.9,32.4,30.30,NNW,332,5.0,6.0,87,0.00,,,0.01,Wunderground v.1.15,2013-01-06 11:16:00,
2013-01-06 06:26:00,35.9,32.7,30.31,SSW,210,2.0,4.0,88,0.00,,,0.01,Wunderground v.1.15,2013-01-06 11:26:00,
2013-01-06 06:35:00,36.1,33.2,30.32,WSW,253,2.0,2.0,89,0.00,,,0.01,Wunderground v.1.15,2013-01-06 11:35:00,
2013-01-06 06:40:00,36.2,33.3,30.31,NNE,23,3.0,5.0,89,0.00,,,0.01,Wunderground v.1.15,2013-01-06 11:40:00,
2013-01-06 06:45:00,36.1,33.2,30.31,NNE,20,4.0,5.0,89,0.00,,,0.01,Wunderground v.1.15,2013-01-06 11:45:00,
2013-01-06 06:50:00,36.1,33.2,30.32,North,350,3.0,4.0,89,0.00,,,0.01,Wunderground v.1.15,2013-01-06 11:50:00,
2013-01-06 06:56:00,36.1,33.2,30.31,SE,143,3.0,4.0,89,0.00,,,0.01,Wunderground v.1.15,2013-01-06 11:56:00,
2013-01-06 07:01:00,36.0,33.1,30.31,NNW,332,3.0,4.0,89,0.00,,,0.01,Wunderground v.1.15,2013-01-06 12:01:00,
2013-01-06 07:11:00,36.0,33.1,30.32,NNW,337,4.0,4.0,89,0.00,,,0.01,Wunderground v.1.15,2013-01-06 12:11:00,
2013-01-06 07:16:00,36.0,33.4,30.31,West,271,4.0,4.0,90,0.00,,,0.01,Wunderground v.1.15,2013-01-06 12:16:00,
2013-01-06 07:25:00,35.7,33.1,30.32,SSW,204,2.0,3.0,90,0.00,,,0.01,Wunderground v.1.15,2013-01-06 12:25:00,
2013-01-06 07:30:00,35.7,33.1,30.32,SE,139,1.0,1.0,90,0.00,,,0.01,Wunderground v.1.15,2013-01-06 12:30:00,
2013-01-06 07:41:00,35.3,32.7,30.32,WNW,285,1.0,1.0,90,0.00,,,0.01,Wunderground v.1.15,2013-01-06 12:41:00,
2013-01-06 07:50:00,35.2,32.8,30.32,South,169,2.0,2.0,91,0.00,,,0.01,Wunderground v.1.15,2013-01-06 12:50:00,
2013-01-06 07:55:00,35.2,32.8,30.32,NW,304,2.0,2.0,91,0.00,,,0.01,Wunderground v.1.15,2013-01-06 12:55:00,
2013-01-06 08:01:00,35.3,32.9,30.32,East,96,3.0,3.0,91,0.00,,,0.01,Wunderground v.1.15,2013-01-06 13:01:00,
2013-01-06 08:11:00,35.5,33.1,30.32,East,84,2.0,2.0,91,0.00,,,0.01,Wunderground v.1.15,2013-01-06 13:11:00,
2013-01-06 08:16:00,35.5,33.1,30.32,NW,306,1.0,2.0,91,0.00,,,0.01,Wunderground v.1.15,2013-01-06 13:16:00,
2013-01-06 08:25:00,35.7,33.3,30.32,SSW,200,1.0,4.0,91,0.00,,,0.01,Wunderground v.1.15,2013-01-06 13:25:00,
2013-01-06 08:30:00,35.8,33.2,30.33,ENE,63,2.0,2.0,90,0.00,,,0.01,Wunderground v.1.15,2013-01-06 13:30:00,
2013-01-06 08:35:00,35.7,33.3,30.33,East,96,1.0,2.0,91,0.00,,,0.01,Wunderground v.1.15,2013-01-06 13:35:00,
2013-01-06 08:46:00,35.8,33.4,30.33,WNW,293,2.0,3.0,91,0.00,,,0.01,Wunderground v.1.15,2013-01-06 13:46:00,
2013-01-06 08:55:00,36.1,33.7,30.32,NNW,335,2.0,3.0,91,0.00,,,0.01,Wunderground v.1.15,2013-01-06 13:55:00,
2013-01-06 09:01:00,36.2,33.5,30.33,SE,131,2.0,2.0,90,0.00,,,0.01,Wunderground v.1.15,2013-01-06 14:01:00,
2013-01-06 09:06:00,36.2,33.5,30.32,NNW,335,1.0,3.0,90,0.00,,,0.01,Wunderground v.1.15,2013-01-06 14:06:00,
2013-01-06 09:16:00,36.3,33.6,30.32,East,91,2.0,2.0,90,0.00,,,0.01,Wunderground v.1.15,2013-01-06 14:16:00,
2013-01-06 09:25:00,36.8,34.1,30.32,SSE,149,0.0,0.0,90,0.00,,,0.01,Wunderground v.1.15,2013-01-06 14:25:00,
2013-01-06 09:30:00,36.9,34.2,30.32,SSW,205,0.0,0.0,90,0.00,,,0.01,Wunderground v.1.15,2013-01-06 14:30:00,
2013-01-06 09:35:00,37.2,34.3,30.32,WSW,243,0.0,0.0,89,0.00,,,0.01,Wunderground v.1.15,2013-01-06 14:35:00,
2013-01-06 09:40:00,37.5,34.6,30.32,ESE,115,0.0,0.0,89,0.00,,,0.01,Wunderground v.1.15,2013-01-06 14:40:00,
2013-01-06 09:46:00,37.7,34.5,30.32,South,187,0.0,0.0,88,0.00,,,0.01,Wunderground v.1.15,2013-01-06 14:46:00,
2013-01-06 09:56:00,38.1,34.9,30.32,NNW,345,0.0,0.0,88,0.00,,,0.01,Wunderground v.1.15,2013-01-06 14:56:00,
2013-01-06 10:01:00,38.3,35.1,30.32,NNW,345,0.0,0.0,88,0.00,,,0.01,Wunderground v.1.15,2013-01-06 15:01:00,
2013-01-06 10:06:00,38.5,35.0,30.32,NNW,345,0.0,0.0,87,0.00,,,0.01,Wunderground v.1.15,2013-01-06 15:06:00,
2013-01-06 10:15:00,38.8,35.3,30.32,ENE,77,0.0,0.0,87,0.00,,,0.01,Wunderground v.1.15,2013-01-06 15:15:00,
2013-01-06 10:20:00,39.0,35.5,30.32,NNE,24,0.0,0.0,87,0.00,,,0.01,Wunderground v.1.15,2013-01-06 15:20:00,
2013-01-06 10:30:00,39.2,35.4,30.31,NE,34,1.0,2.0,86,0.00,,,0.01,Wunderground v.1.15,2013-01-06 15:30:00,
2013-01-06 10:35:00,39.3,35.5,30.32,NNW,334,1.0,4.0,86,0.00,,,0.01,Wunderground v.1.15,2013-01-06 15:35:00,
2013-01-06 10:41:00,39.4,35.6,30.31,SSE,160,1.0,1.0,86,0.00,,,0.01,Wunderground v.1.15,2013-01-06 15:41:00,
2013-01-06 10:46:00,39.8,36.0,30.31,NW,322,1.0,1.0,86,0.00,,,0.01,Wunderground v.1.15,2013-01-06 15:46:00,
2013-01-06 10:51:00,40.5,36.3,30.31,ESE,106,1.0,1.0,85,0.00,,,0.01,Wunderground v.1.15,2013-01-06 15:51:00,
2013-01-06 11:00:00,41.4,36.6,30.31,East,96,1.0,1.0,83,0.00,,,0.01,Wunderground v.1.15,2013-01-06 16:00:00,
2013-01-06 11:05:00,41.8,36.4,30.31,North,355,1.0,1.0,81,0.00,,,0.01,Wunderground v.1.15,2013-01-06 16:05:00,
2013-01-06 11:10:00,42.0,36.9,30.30,SE,143,2.0,2.0,82,0.00,,,0.01,Wunderground v.1.15,2013-01-06 16:10:00,
2013-01-06 11:15:00,42.4,37.0,30.30,NNE,16,2.0,9.0,81,0.00,,,0.01,Wunderground v.1.15,2013-01-06 16:15:00,
2013-01-06 11:21:00,42.2,36.5,30.30,ESE,122,3.0,3.0,80,0.00,,,0.01,Wunderground v.1.15,2013-01-06 16:21:00,
2013-01-06 11:31:00,42.0,36.3,30.29,North,358,4.0,4.0,80,0.00,,,0.01,Wunderground v.1.15,2013-01-06 16:31:00,
2013-01-06 11:41:00,43.0,37.6,30.29,ENE,67,3.0,3.0,81,0.00,,,0.01,Wunderground v.1.15,2013-01-06 16:41:00,
2013-01-06 11:46:00,43.7,37.3,30.29,South,184,2.0,3.0,78,0.00,,,0.01,Wunderground v.1.15,2013-01-06 16:46:00,
2013-01-06 11:55:00,43.8,37.4,30.28,NNW,333,3.0,8.0,78,0.00,,,0.01,Wunderground v.1.15,2013-01-06 16:55:00,
2013-01-06 12:00:00,44.0,37.3,30.28,SSE,166,3.0,3.0,77,0.00,,,0.01,Wunderground v.1.15,2013-01-06 17:00:00,
2013-01-06 12:10:00,44.1,37.3,30.27,NE,49,3.0,5.0,77,0.00,,,0.01,Wunderground v.1.15,2013-01-06 17:10:00,
2013-01-06 12:15:00,43.9,36.8,30.27,SE,127,4.0,5.0,76,0.00,,,0.01,Wunderground v.1.15,2013-01-06 17:15:00,
2013-01-06 12:20:00,43.3,36.6,30.26,NE,43,6.0,6.0,77,0.00,,,0.01,Wunderground v.1.15,2013-01-06 17:20:00,
2013-01-06 12:26:00,43.3,36.9,30.26,NNE,14,6.0,7.0,78,0.00,,,0.01,Wunderground v.1.15,2013-01-06 17:26:00,
2013-01-06 12:31:00,43.3,36.9,30.26,NNW,344,5.0,5.0,78,0.00,,,0.01,Wunderground v.1.15,2013-01-06 17:31:00,
2013-01-06 12:36:00,43.4,36.7,30.25,NNE,30,4.0,5.0,77,0.00,,,0.01,Wunderground v.1.15,2013-01-06 17:36:00,
2013-01-06 12:46:00,43.6,36.9,30.25,ENE,62,4.0,4.0,77,0.00,,,0.01,Wunderground v.1.15,2013-01-06 17:46:00,
2013-01-06 12:55:00,44.0,36.9,30.24,NE,36,4.0,5.0,76,0.00,,,0.01,Wunderground v.1.15,2013-01-06 17:55:00,
2013-01-06 13:00:00,44.4,37.0,30.24,NE,34,4.0,4.0,75,0.00,,,0.01,Wunderground v.1.15,2013-01-06 18:00:00,
2013-01-06 13:05:00,44.6,37.2,30.23,NE,47,3.0,4.0,75,0.00,,,0.01,Wunderground v.1.15,2013-01-06 18:05:00,
2013-01-06 13:10:00,44.5,37.1,30.23,North,352,3.0,4.0,75,0.00,,,0.01,Wunderground v.1.15,2013-01-06 18:10:00,
2013-01-06 13:20:00,44.8,37.0,30.23,NNE,18,3.0,3.0,74,0.00,,,0.01,Wunderground v.1.15,2013-01-06 18:20:00,
2013-01-06 13:25:00,44.9,37.1,30.22,West,280,3.0,3.0,74,0.00,,,0.01,Wunderground v.1.15,2013-01-06 18:25:00,
2013-01-06 13:31:00,45.0,37.2,30.23,East,88,2.0,2.0,74,0.00,,,0.01,Wunderground v.1.15,2013-01-06 18:31:00,
2013-01-06 13:36:00,44.6,36.5,30.22,NNW,347,3.0,3.0,73,0.00,,,0.01,Wunderground v.1.15,2013-01-06 18:36:00,
2013-01-06 13:45:00,44.9,36.8,30.22,NNE,23,4.0,5.0,73,0.00,,,0.01,Wunderground v.1.15,2013-01-06 18:45:00,
2013-01-06 13:55:00,45.1,37.0,30.22,North,11,4.0,4.0,73,0.00,,,0.01,Wunderground v.1.15,2013-01-06 18:55:00,
2013-01-06 14:00:00,45.0,36.5,30.21,NE,38,3.0,3.0,72,0.00,,,0.01,Wunderground v.1.15,2013-01-06 19:00:00,
2013-01-06 14:05:00,45.1,36.6,30.21,NNE,19,4.0,4.0,72,0.00,,,0.01,Wunderground v.1.15,2013-01-06 19:05:00,
2013-01-06 14:10:00,45.6,37.1,30.21,NE,50,3.0,3.0,72,0.00,,,0.01,Wunderground v.1.15,2013-01-06 19:10:00,
2013-01-06 14:15:00,45.9,37.0,30.21,NE,40,2.0,3.0,71,0.00,,,0.01,Wunderground v.1.15,2013-01-06 19:15:00,
2013-01-06 14:26:00,45.8,36.9,30.21,NNW,335,3.0,5.0,71,0.00,,,0.01,Wunderground v.1.15,2013-01-06 19:26:00,
2013-01-06 14:31:00,45.5,36.6,30.21,NNW,335,4.0,4.0,71,0.00,,,0.01,Wunderground v.1.15,2013-01-06 19:31:00,
2013-01-06 14:45:00,45.2,36.7,30.21,NE,38,3.0,5.0,72,0.00,,,0.01,Wunderground v.1.15,2013-01-06 19:45:00,
2013-01-06 14:50:00,45.0,36.5,30.20,NNE,23,4.0,4.0,72,0.00,,,0.01,Wunderground v.1.15,2013-01-06 19:50:00,
2013-01-06 14:56:00,45.2,36.4,30.20,NE,34,4.0,4.0,71,0.00,,,0.01,Wunderground v.1.15,2013-01-06 19:56:00,
2013-01-06 15:01:00,45.3,36.4,30.20,ENE,77,3.0,3.0,71,0.00,,,0.01,Wunderground v.1.15,2013-01-06 20:01:00,
2013-01-06 15:11:00,45.2,36.4,30.20,ENE,58,5.0,5.0,71,0.00,,,0.01,Wunderground v.1.15,2013-01-06 20:11:00,
2013-01-06 15:20:00,45.2,36.4,30.20,WNW,288,4.0,4.0,71,0.00,,,0.01,Wunderground v.1.15,2013-01-06 20:20:00,
2013-01-06 15:25:00,45.2,36.4,30.20,NW,326,3.0,4.0,71,0.00,,,0.01,Wunderground v.1.15,2013-01-06 20:25:00,
2013-01-06 15:30:00,45.2,36.4,30.21,SE,127,3.0,3.0,71,0.00,,,0.01,Wunderground v.1.15,2013-01-06 20:30:00,
2013-01-06 15:40:00,44.5,36.0,30.21,ENE,76,4.0,4.0,72,0.00,,,0.01,Wunderground v.1.15,2013-01-06 20:40:00,
2013-01-06 15:46:00,43.9,35.8,30.22,NNW,332,5.0,11.0,73,0.00,,,0.01,Wunderground v.1.15,2013-01-06 20:46:00,
2013-01-06 15:51:00,43.1,35.0,30.22,East,81,6.0,6.0,73,0.00,,,0.01,Wunderground v.1.15,2013-01-06 20:51:00,
2013-01-06 16:00:00,41.4,34.7,30.22,NNW,338,6.0,11.0,77,0.00,,,0.01,Wunderground v.1.15,2013-01-06 21:00:00,
2013-01-06 16:06:00,40.8,34.5,30.23,North,354,6.0,11.0,78,0.00,,,0.01,Wunderground v.1.15,2013-01-06 21:06:00,
2013-01-06 16:11:00,40.4,34.4,30.23,NE,41,7.0,7.0,79,0.00,,,0.01,Wunderground v.1.15,2013-01-06 21:11:00,
2013-01-06 16:21:00,39.7,34.0,30.23,NW,320,6.0,6.0,80,0.00,,,0.01,Wunderground v.1.15,2013-01-06 21:21:00,
2013-01-06 16:30:00,39.5,33.8,30.23,NNW,332,4.0,4.0,80,0.00,,,0.01,Wunderground v.1.15,2013-01-06 21:30:00,
2013-01-06 16:35:00,39.4,33.7,30.23,SSW,202,3.0,4.0,80,0.00,,,0.01,Wunderground v.1.15,2013-01-06 21:35:00,
2013-01-06 16:40:00,39.3,33.6,30.23,SSE,154,2.0,2.0,80,0.00,,,0.01,Wunderground v.1.15,2013-01-06 21:40:00,
2013-01-06 16:45:00,39.3,33.6,30.23,SW,224,2.0,3.0,80,0.00,,,0.01,Wunderground v.1.15,2013-01-06 21:45:00,
2013-01-06 16:55:00,39.0,33.4,30.24,SSE,159,2.0,3.0,80,0.00,,,0.01,Wunderground v.1.15,2013-01-06 21:55:00,
2013-01-06 17:01:00,38.8,33.2,30.24,SSE,162,2.0,2.0,80,0.00,,,0.01,Wunderground v.1.15,2013-01-06 22:01:00,
2013-01-06 17:06:00,38.6,33.0,30.24,NE,55,1.0,3.0,80,0.00,,,0.01,Wunderground v.1.15,2013-01-06 22:06:00,
2013-01-06 17:15:00,38.4,32.8,30.24,NW,323,2.0,2.0,80,0.00,,,0.01,Wunderground v.1.15,2013-01-06 22:15:00,
2013-01-06 17:20:00,38.3,33.0,30.24,NNE,18,2.0,2.0,81,0.00,,,0.01,Wunderground v.1.15,2013-01-06 22:20:00,
2013-01-06 17:30:00,37.8,32.5,30.24,NNW,329,2.0,2.0,81,0.00,,,0.01,Wunderground v.1.15,2013-01-06 22:30:00,
2013-01-06 17:35:00,37.6,32.3,30.24,SSW,200,2.0,2.0,81,0.00,,,0.01,Wunderground v.1.15,2013-01-06 22:35:00,
2013-01-06 17:40:00,37.3,32.0,30.24,WSW,243,2.0,3.0,81,0.00,,,0.01,Wunderground v.1.15,2013-01-06 22:40:00,
2013-01-06 17:45:00,37.2,32.2,30.25,North,358,2.0,3.0,82,0.00,,,0.01,Wunderground v.1.15,2013-01-06 22:45:00,
2013-01-06 17:50:00,37.1,32.1,30.25,WNW,301,3.0,4.0,82,0.00,,,0.01,Wunderground v.1.15,2013-01-06 22:50:00,
2013-01-06 17:56:00,37.0,31.7,30.25,NW,326,4.0,4.0,81,0.00,,,0.01,Wunderground v.1.15,2013-01-06 22:56:00,
2013-01-06 18:01:00,36.9,31.9,30.25,WNW,297,5.0,7.0,82,0.00,,,0.01,Wunderground v.1.15,2013-01-06 23:01:00,
2013-01-06 18:10:00,36.7,31.7,30.25,North,349,5.0,5.0,82,0.00,,,0.01,Wunderground v.1.15,2013-01-06 23:10:00,
2013-01-06 18:15:00,36.5,31.5,30.26,North,3,5.0,8.0,82,0.00,,,0.01,Wunderground v.1.15,2013-01-06 23:15:00,
2013-01-06 18:20:00,36.3,31.3,30.26,NNW,340,5.0,6.0,82,0.00,,,0.01,Wunderground v.1.15,2013-01-06 23:20:00,
2013-01-06 18:25:00,36.3,31.3,30.26,North,4,5.0,8.0,82,0.00,,,0.01,Wunderground v.1.15,2013-01-06 23:25:00,
2013-01-06 18:35:00,36.1,31.4,30.27,NE,41,6.0,8.0,83,0.00,,,0.01,Wunderground v.1.15,2013-01-06 23:35:00,
2013-01-06 18:41:00,35.9,31.2,30.28,NE,46,6.0,6.0,83,0.00,,,0.01,Wunderground v.1.15,2013-01-06 23:41:00,
2013-01-06 18:46:00,35.8,31.1,30.28,WSW,242,5.0,6.0,83,0.00,,,0.01,Wunderground v.1.15,2013-01-06 23:46:00,
2013-01-06 18:51:00,35.5,30.8,30.28,WNW,285,4.0,4.0,83,0.00,,,0.01,Wunderground v.1.15,2013-01-06 23:51:00,
2013-01-06 19:00:00,35.4,30.8,30.29,NNE,20,5.0,5.0,83,0.00,,,0.01,Wunderground v.1.15,2013-01-07 00:00:00,
2013-01-06 19:05:00,35.3,30.7,30.30,NNE,29,5.0,5.0,83,0.00,,,0.01,Wunderground v.1.15,2013-01-07 00:05:00,
2013-01-06 19:10:00,35.2,30.6,30.30,NNW,343,5.0,5.0,83,0.00,,,0.01,Wunderground v.1.15,2013-01-07 00:10:00,
2013-01-06 19:15:00,35.1,30.5,30.30,NNW,344,5.0,5.0,83,0.00,,,0.01,Wunderground v.1.15,2013-01-07 00:15:00,
2013-01-06 19:20:00,34.9,30.3,30.30,NW,325,4.0,5.0,83,0.00,,,0.01,Wunderground v.1.15,2013-01-07 00:20:00,
2013-01-06 19:25:00,34.8,30.5,30.30,ENE,73,3.0,5.0,84,0.00,,,0.01,Wunderground v.1.15,2013-01-07 00:25:00,
2013-01-06 19:31:00,34.6,30.3,30.30,SE,129,3.0,3.0,84,0.00,,,0.01,Wunderground v.1.15,2013-01-07 00:31:00,
2013-01-06 19:36:00,34.4,30.1,30.30,NNW,335,2.0,3.0,84,0.00,,,0.01,Wunderground v.1.15,2013-01-07 00:36:00,
2013-01-06 19:46:00,34.2,29.9,30.30,NE,49,2.0,2.0,84,0.00,,,0.01,Wunderground v.1.15,2013-01-07 00:46:00,
2013-01-06 19:51:00,34.0,29.7,30.30,North,357,1.0,1.0,84,0.00,,,0.01,Wunderground v.1.15,2013-01-07 00:51:00,
2013-01-06 20:00:00,33.8,29.5,30.31,NW,307,2.0,2.0,84,0.00,,,0.01,Wunderground v.1.15,2013-01-07 01:00:00,
2013-01-06 20:05:00,33.8,29.5,30.31,ENE,78,2.0,2.0,84,0.00,,,0.01,Wunderground v.1.15,2013-01-07 01:05:00,
2013-01-06 20:10:00,33.9,29.3,30.31,NNW,347,2.0,2.0,83,0.00,,,0.01,Wunderground v.1.15,2013-01-07 01:10:00,
2013-01-06 20:20:00,33.8,29.2,30.31,East,94,2.0,2.0,83,0.00,,,0.01,Wunderground v.1.15,2013-01-07 01:20:00,
2013-01-06 20:25:00,34.0,29.1,30.31,North,352,3.0,7.0,82,0.00,,,0.01,Wunderground v.1.15,2013-01-07 01:25:00,
2013-01-06 20:31:00,34.2,29.0,30.31,NNE,15,3.0,7.0,81,0.00,,,0.01,Wunderground v.1.15,2013-01-07 01:31:00,
2013-01-06 20:36:00,34.3,29.1,30.31,NE,37,3.0,7.0,81,0.00,,,0.01,Wunderground v.1.15,2013-01-07 01:36:00,
2013-01-06 20:45:00,34.6,29.1,30.31,NE,37,5.0,6.0,80,0.00,,,0.01,Wunderground v.1.15,2013-01-07 01:45:00,
2013-01-06 20:50:00,34.8,29.0,30.32,East,91,4.0,4.0,79,0.00,,,0.01,Wunderground v.1.15,2013-01-07 01:50:00,
2013-01-06 20:55:00,34.5,28.7,30.32,SE,134,2.0,4.0,79,0.00,,,0.01,Wunderground v.1.15,2013-01-07 01:55:00,
2013-01-06 21:00:00,34.2,28.7,30.31,NNW,338,1.0,1.0,80,0.00,,,0.01,Wunderground v.1.15,2013-01-07 02:00:00,
2013-01-06 21:05:00,33.7,28.5,30.31,SSW,195,2.0,5.0,81,0.00,,,0.01,Wunderground v.1.15,2013-01-07 02:05:00,
2013-01-06 21:10:00,33.6,28.7,30.32,ENE,63,2.0,2.0,82,0.00,,,0.01,Wunderground v.1.15,2013-01-07 02:10:00,
2013-01-06 21:15:00,33.7,28.5,30.32,ENE,59,2.0,5.0,81,0.00,,,0.01,Wunderground v.1.15,2013-01-07 02:15:00,
2013-01-06 21:20:00,33.7,28.5,30.32,NE,44,1.0,1.0,81,0.00,,,0.01,Wunderground v.1.15,2013-01-07 02:20:00,
2013-01-06 21:26:00,33.3,28.4,30.32,SSE,153,0.0,1.0,82,0.00,,,0.01,Wunderground v.1.15,2013-01-07 02:26:00,
2013-01-06 21:35:00,33.2,28.6,30.32,ESE,104,2.0,2.0,83,0.00,,,0.01,Wunderground v.1.15,2013-01-07 02:35:00,
2013-01-06 21:40:00,33.3,28.7,30.33,ENE,71,2.0,2.0,83,0.00,,,0.01,Wunderground v.1.15,2013-01-07 02:40:00,
2013-01-06 21:45:00,33.3,28.7,30.32,SE,131,2.0,2.0,83,0.00,,,0.01,Wunderground v.1.15,2013-01-07 02:45:00,
2013-01-06 21:50:00,33.2,28.6,30.33,East,89,2.0,2.0,83,0.00,,,0.01,Wunderground v.1.15,2013-01-07 02:50:00,
2013-01-06 21:55:00,33.2,28.6,30.33,NW,311,1.0,2.0,83,0.00,,,0.01,Wunderground v.1.15,2013-01-07 02:55:00,
2013-01-06 22:00:00,33.1,28.5,30.33,ENE,61,1.0,1.0,83,0.00,,,0.01,Wunderground v.1.15,2013-01-07 03:00:00,
2013-01-06 22:06:00,32.9,28.3,30.33,ESE,104,1.0,5.0,83,0.00,,,0.01,Wunderground v.1.15,2013-01-07 03:06:00,
2013-01-06 22:11:00,33.2,28.6,30.34,ENE,63,1.0,4.0,83,0.00,,,0.01,Wunderground v.1.15,2013-01-07 03:11:00,
2013-01-06 22:16:00,33.3,28.4,30.34,ESE,108,1.0,4.0,82,0.00,,,0.01,Wunderground v.1.15,2013-01-07 03:16:00,
2013-01-06 22:25:00,32.6,28.0,30.33,South,169,1.0,1.0,83,0.00,,,0.01,Wunderground v.1.15,2013-01-07 03:25:00,
2013-01-06 22:35:00,33.1,28.2,30.33,NNW,328,1.0,2.0,82,0.00,,,0.01,Wunderground v.1.15,2013-01-07 03:35:00,
2013-01-06 22:40:00,33.2,28.3,30.34,WSW,243,2.0,2.0,82,0.00,,,0.01,Wunderground v.1.15,2013-01-07 03:40:00,
2013-01-06 22:45:00,33.3,28.1,30.33,NNE,15,2.0,2.0,81,0.00,,,0.01,Wunderground v.1.15,2013-01-07 03:45:00,
2013-01-06 22:50:00,33.3,28.1,30.34,SE,125,1.0,1.0,81,0.00,,,0.01,Wunderground v.1.15,2013-01-07 03:50:00,
2013-01-06 22:55:00,33.0,27.8,30.34,East,94,1.0,1.0,81,0.00,,,0.01,Wunderground v.1.15,2013-01-07 03:55:00,
2013-01-06 23:01:00,32.9,27.7,30.34,South,179,0.0,0.0,81,0.00,,,0.01,Wunderground v.1.15,2013-01-07 04:01:00,
2013-01-06 23:11:00,32.9,27.4,30.35,NW,314,0.0,0.0,80,0.00,,,0.01,Wunderground v.1.15,2013-01-07 04:11:00,
2013-01-06 23:16:00,32.8,27.3,30.35,NW,323,0.0,0.0,80,0.00,,,0.01,Wunderground v.1.15,2013-01-07 04:16:00,
2013-01-06 23:25:00,32.7,27.2,30.36,West,272,0.0,0.0,80,0.00,,,0.01,Wunderground v.1.15,2013-01-07 04:25:00,
2013-01-06 23:30:00,32.5,27.3,30.36,NW,305,0.0,0.0,81,0.00,,,0.01,Wunderground v.1.15,2013-01-07 04:30:00,
2013-01-06 23:35:00,32.5,27.3,30.37,North,355,1.0,4.0,81,0.00,,,0.01,Wunderground v.1.15,2013-01-07 04:35:00,
2013-01-06 23:40:00,32.7,27.5,30.37,NNE,23,1.0,2.0,81,0.00,,,0.01,Wunderground v.1.15,2013-01-07 04:40:00,
2013-01-06 23:45:00,32.5,27.3,30.38,NE,51,1.0,2.0,81,0.00,,,0.01,Wunderground v.1.15,2013-01-07 04:45:00,
2013-01-06 23:50:00,32.3,27.4,30.37,NW,316,1.0,1.0,82,0.00,,,0.01,Wunderground v.1.15,2013-01-07 04:50:00,
2013-01-06 23:55:00,32.1,27.2,30.37,SW,233,0.0,1.0,82,0.00,,,0.01,Wunderground v.1.15,2013-01-07 04:55:00,